createdAt,value
2022-12-22T00:04:08.693Z,10.40
2022-12-22T00:11:10.718Z,10.50
2022-12-22T00:18:11.653Z,10.50
2022-12-22T00:25:41.500Z,10.40
2022-12-22T00:32:43.734Z,10.40
2022-12-22T00:39:44.543Z,10.40
2022-12-22T00:46:45.475Z,10.40
2022-12-22T00:53:46.268Z,10.50
2022-12-22T01:00:48.065Z,10.60
2022-12-22T01:07:51.012Z,10.80
2022-12-22T01:14:51.823Z,10.70
2022-12-22T01:21:52.636Z,10.70
2022-12-22T01:28:53.430Z,10.70
2022-12-22T01:35:54.454Z,10.70
2022-12-22T01:42:55.235Z,10.80
2022-12-22T01:50:00.925Z,10.80
2022-12-22T01:57:04.279Z,10.90
2022-12-22T02:04:05.388Z,10.80
2022-12-22T02:11:18.046Z,10.80
2022-12-22T02:18:34.552Z,11.00
2022-12-22T02:25:51.934Z,10.90
2022-12-22T02:33:03.792Z,11.00
2022-12-22T02:40:40.648Z,11.10
2022-12-22T02:48:26.064Z,11.10
2022-12-22T02:55:27.777Z,11.20
2022-12-22T03:02:30.314Z,11.30
2022-12-22T03:09:38.283Z,11.40
2022-12-22T03:16:54.881Z,11.00
2022-12-22T03:23:56.630Z,11.40
2022-12-22T03:30:39.348Z,13.40
2022-12-22T03:37:30.403Z,11.10
2022-12-22T03:44:31.181Z,11.10
2022-12-22T03:51:13.646Z,10.50
2022-12-22T03:58:16.911Z,11.00
2022-12-22T04:04:59.200Z,11.10
2022-12-22T04:11:59.957Z,11.30
2022-12-22T04:18:42.240Z,12.80
2022-12-22T04:25:26.211Z,11.50
2022-12-22T04:32:08.596Z,11.60
2022-12-22T04:38:51.274Z,11.60
2022-12-22T04:45:33.628Z,11.50
2022-12-22T04:52:15.953Z,11.50
2022-12-22T04:58:58.309Z,11.50
2022-12-22T05:05:40.610Z,11.50
2022-12-22T05:12:41.463Z,10.90
2022-12-22T05:19:27.476Z,11.50
2022-12-22T05:26:14.658Z,11.60
2022-12-22T05:32:57.107Z,11.60
2022-12-22T05:39:39.379Z,11.70
2022-12-22T05:46:23.738Z,11.80
2022-12-22T05:53:07.559Z,11.80
2022-12-22T05:59:49.869Z,11.70
2022-12-22T06:06:32.189Z,11.70
2022-12-22T06:13:14.563Z,12.60
2022-12-22T06:19:56.946Z,11.20
2022-12-22T06:27:02.234Z,11.30
2022-12-22T06:33:45.401Z,11.40
2022-12-22T06:40:27.737Z,11.20
2022-12-22T06:47:10.368Z,11.30
2022-12-22T06:53:52.685Z,11.30
2022-12-22T07:00:35.232Z,11.40
2022-12-22T07:07:17.543Z,11.30
2022-12-22T07:13:59.934Z,11.70
2022-12-22T07:20:42.315Z,12.00
2022-12-22T07:27:24.622Z,11.90
2022-12-22T07:34:06.973Z,12.10
2022-12-22T07:40:51.895Z,11.90
2022-12-22T07:47:35.637Z,12.10
2022-12-22T07:54:18.698Z,12.20
2022-12-22T08:01:01.523Z,12.10
2022-12-22T08:07:44.559Z,12.20
2022-12-22T08:14:26.887Z,12.20
2022-12-22T08:21:09.531Z,12.40
2022-12-22T08:27:56.244Z,12.60
2022-12-22T08:34:39.070Z,12.80
2022-12-22T08:41:41.699Z,12.80
2022-12-22T08:48:44.229Z,12.70
2022-12-22T08:55:26.547Z,12.60
2022-12-22T09:02:08.916Z,12.70
2022-12-22T09:09:00.022Z,12.80
2022-12-22T09:15:42.383Z,13.60
2022-12-22T09:22:47.715Z,14.00
2022-12-22T09:29:30.292Z,14.70
2022-12-22T09:36:15.710Z,13.50
2022-12-22T09:42:58.376Z,12.90
2022-12-22T09:49:40.740Z,12.70
2022-12-22T09:56:25.199Z,12.50
2022-12-22T10:03:19.541Z,12.30
2022-12-22T10:10:28.142Z,12.10
2022-12-22T10:17:17.857Z,12.00
2022-12-22T10:24:27.400Z,12.00
2022-12-22T10:31:32.019Z,12.30
2022-12-22T10:38:36.682Z,12.60
2022-12-22T10:45:25.689Z,12.50
2022-12-22T10:52:18.371Z,12.60
2022-12-22T10:59:02.588Z,12.60
2022-12-22T11:05:45.289Z,12.50
2022-12-22T11:12:44.591Z,12.30
2022-12-22T11:19:35.208Z,12.30
2022-12-22T11:26:42.696Z,12.30
2022-12-22T11:33:51.810Z,12.60
2022-12-22T11:40:48.999Z,12.70
2022-12-22T11:48:01.595Z,12.90
2022-12-22T11:54:59.190Z,12.90
2022-12-22T12:02:12.763Z,12.90
2022-12-22T12:09:05.546Z,13.10
2022-12-22T12:16:19.200Z,13.50
2022-12-22T12:23:24.755Z,13.80
2022-12-22T12:31:04.890Z,14.10
2022-12-22T12:37:54.868Z,14.60
2022-12-22T12:44:38.526Z,14.80
2022-12-22T12:51:49.277Z,14.90
2022-12-22T12:58:35.296Z,14.70
2022-12-22T13:05:49.971Z,14.40
2022-12-22T13:12:48.957Z,14.40
2022-12-22T13:19:31.337Z,14.50
2022-12-22T13:26:17.430Z,14.10
2022-12-22T13:33:02.232Z,14.10
2022-12-22T13:40:13.922Z,13.80
2022-12-22T13:47:01.884Z,14.10
2022-12-22T13:54:11.263Z,14.00
2022-12-22T14:01:17.809Z,14.30
2022-12-22T14:08:03.111Z,14.20
2022-12-22T14:14:47.414Z,14.10
2022-12-22T14:21:30.717Z,14.20
2022-12-22T14:28:39.288Z,14.90
2022-12-22T14:35:21.591Z,14.00
2022-12-22T14:42:11.520Z,13.80
2022-12-22T14:48:53.957Z,13.80
2022-12-22T14:55:41.047Z,13.60
2022-12-22T15:02:38.405Z,13.60
2022-12-22T15:10:03.738Z,13.60
2022-12-22T15:16:28.192Z,13.30
2022-12-22T15:23:14.091Z,13.00
2022-12-22T15:29:56.416Z,12.80
2022-12-22T15:36:39.029Z,13.10
2022-12-22T15:43:55.784Z,12.90
2022-12-22T15:50:39.856Z,14.30
2022-12-22T15:57:32.562Z,12.80
2022-12-22T16:04:15.158Z,12.30
2022-12-22T16:11:07.202Z,12.50
2022-12-22T16:17:52.905Z,13.80
2022-12-22T16:24:36.320Z,11.90
2022-12-22T16:31:21.761Z,12.10
2022-12-22T16:38:04.161Z,11.90
2022-12-22T16:44:59.595Z,11.90
2022-12-22T16:51:50.519Z,13.40
2022-12-22T16:58:32.874Z,12.40
2022-12-22T17:05:29.448Z,11.50
2022-12-22T17:12:21.113Z,11.60
2022-12-22T17:19:03.634Z,11.80
2022-12-22T17:25:46.360Z,11.70
2022-12-22T17:32:49.924Z,11.70
2022-12-22T17:39:33.786Z,11.70
2022-12-22T17:46:18.800Z,11.50
2022-12-22T17:53:02.164Z,11.50
2022-12-22T17:59:44.510Z,11.70
2022-12-22T18:06:33.183Z,11.60
2022-12-22T18:13:19.614Z,11.70
2022-12-22T18:20:02.129Z,12.70
2022-12-22T18:26:46.282Z,11.60
2022-12-22T18:33:28.649Z,11.70
2022-12-22T18:40:39.962Z,11.70
2022-12-22T18:47:22.334Z,11.70
2022-12-22T18:54:32.406Z,11.60
2022-12-22T19:01:26.431Z,11.70
2022-12-22T19:08:17.810Z,11.80
2022-12-22T19:15:06.525Z,11.70
2022-12-22T19:21:51.349Z,11.70
2022-12-22T19:28:38.453Z,14.60
2022-12-22T19:35:24.751Z,12.90
2022-12-22T19:42:15.095Z,12.20
2022-12-22T19:49:18.174Z,14.60
2022-12-22T19:56:00.882Z,14.50
2022-12-22T20:02:47.169Z,14.50
2022-12-22T20:09:29.624Z,10.30
2022-12-22T20:16:15.888Z,13.40
2022-12-22T20:23:08.737Z,14.60
2022-12-22T20:29:51.247Z,11.60
2022-12-22T20:36:33.648Z,11.40
2022-12-22T20:43:20.009Z,11.40
2022-12-22T20:50:02.588Z,11.30
2022-12-22T20:56:46.081Z,11.30
2022-12-22T21:03:29.023Z,11.40
2022-12-22T21:10:21.097Z,11.40
2022-12-22T21:17:04.509Z,12.30
2022-12-22T21:23:47.040Z,11.30
2022-12-22T21:30:29.972Z,11.40
2022-12-22T21:37:18.631Z,11.50
2022-12-22T21:44:01.018Z,11.50
2022-12-22T21:50:43.372Z,11.40
2022-12-22T21:57:26.452Z,11.30
2022-12-22T22:04:09.170Z,11.10
2022-12-22T22:10:51.492Z,11.20
2022-12-22T22:17:33.942Z,11.20
2022-12-22T22:24:16.537Z,11.20
2022-12-22T22:30:59.198Z,11.00
2022-12-22T22:37:41.509Z,10.70
2022-12-22T22:44:23.833Z,11.60
2022-12-22T22:51:10.002Z,10.90
2022-12-22T22:57:52.418Z,10.80
2022-12-22T23:04:34.683Z,10.90
2022-12-22T23:11:19.008Z,10.70
2022-12-22T23:18:01.358Z,10.80
2022-12-22T23:24:43.896Z,10.70
2022-12-22T23:31:26.389Z,10.60
2022-12-22T23:38:09.840Z,10.70
2022-12-22T23:44:52.217Z,10.70
2022-12-22T23:51:34.678Z,10.80
2022-12-22T23:58:17.742Z,10.90
